Wetterdaten: aktuell Samstag, 05.12.2020 12:00
Datum Zeit Temp. 2m rel. Feuchte Luftdruck Regen Wind Richtung Richtung Sonne ET UV-Index Solar Taupunkt Ben
05.12.2020 12:00 7,0 C 71 % 997,9 hPa 0,0 mm 7,4 km/h (2 Bft) O-NO 61 60 min 0,2 mm 2,1 UV-I 396 W/m 2,1 C 13,3 km/h (3 Bft)
05.12.2020 11:00 5,3 C 88 % 997,5 hPa 0,0 mm 6,0 km/h (2 Bft) O 84 55 min 0,1 mm 1,4 UV-I 335 W/m 3,5 C 15,5 km/h (3 Bft)
05.12.2020 10:00 2,9 C 94 % 997,1 hPa 0,0 mm 2,8 km/h (1 Bft) W-NW 296 0 min 0,0 mm 0,3 UV-I 67 W/m 2,0 C 8,9 km/h (2 Bft)
05.12.2020 09:00 2,6 C 94 % 996,4 hPa 0,0 mm 1,7 km/h (1 Bft) W 276 0 min 0,0 mm 0,0 UV-I 30 W/m 1,7 C 4,4 km/h (1 Bft)
05.12.2020 08:00 2,5 C 94 % 995,3 hPa 0,0 mm 1,1 km/h (1 Bft) W 275 0 min 0,0 mm 0,0 UV-I 0 W/m 1,6 C 4,4 km/h (1 Bft)
05.12.2020 07:00 2,6 C 93 % 994,0 hPa 0,0 mm 0,0 km/h (0 Bft) W 274 0 min 0,0 mm 0,0 UV-I 0 W/m 1,6 C 2,2 km/h (1 Bft)
05.12.2020 06:00 3,4 C 93 % 993,5 hPa 0,0 mm 2,0 km/h (1 Bft) W 277 0 min 0,0 mm 0,0 UV-I 0 W/m 2,4 C 4,4 km/h (1 Bft)
05.12.2020 05:00 3,6 C 93 % 992,9 hPa 0,0 mm 4,3 km/h (1 Bft) W-NW 289 0 min 0,0 mm 0,0 UV-I 0 W/m 2,6 C 6,7 km/h (2 Bft)
05.12.2020 04:00 3,6 C 91 % 992,5 hPa 0,0 mm 1,8 km/h (1 Bft) W-NW 284 0 min 0,0 mm 0,0 UV-I 0 W/m 2,3 C 4,4 km/h (1 Bft)
05.12.2020 03:00 2,9 C 93 % 992,2 hPa 0,0 mm 2,0 km/h (1 Bft) W 274 0 min 0,0 mm 0,0 UV-I 0 W/m 1,9 C 4,4 km/h (1 Bft)
05.12.2020 02:00 2,5 C 91 % 991,5 hPa 0,0 mm 0,6 km/h (0 Bft) W 274 0 min 0,0 mm 0,0 UV-I 0 W/m 1,2 C 4,4 km/h (1 Bft)
05.12.2020 01:00 2,3 C 90 % 991,5 hPa 0,0 mm 0,0 km/h (0 Bft) W 274 0 min 0,0 mm 0,0 UV-I 0 W/m 0,8 C 0,0 km/h (0 Bft)
05.12.2020 00:00 2,7 C 88 % 990,9 hPa 0,0 mm 0,0 km/h (0 Bft) W 274 0 min 0,0 mm 0,0 UV-I 0 W/m 0,9 C 0,0 km/h (0 Bft)
04.12.2020 23:00 4,1 C 85 % 990,1 hPa 0,0 mm 0,0 km/h (0 Bft) W 271 0 min 0,0 mm 0,0 UV-I 0 W/m 1,8 C 0,0 km/h (0 Bft)
04.12.2020 22:00 5,0 C 84 % 990,2 hPa 0,0 mm 0,0 km/h (0 Bft) W 270 0 min 0,0 mm 0,0 UV-I 0 W/m 2,5 C 0,0 km/h (0 Bft)
04.12.2020 21:00 5,6 C 84 % 990,3 hPa 0,0 mm 0,9 km/h (0 Bft) W 270 0 min 0,0 mm 0,0 UV-I 0 W/m 3,1 C 2,2 km/h (1 Bft)
04.12.2020 20:00 6,1 C 83 % 989,5 hPa 0,0 mm 3,0 km/h (1 Bft) W 275 0 min 0,0 mm 0,0 UV-I 0 W/m 3,4 C 6,7 km/h (2 Bft)
04.12.2020 19:00 6,5 C 81 % 989,2 hPa 0,0 mm 3,9 km/h (1 Bft) W 259 0 min 0,0 mm 0,0 UV-I 0 W/m 3,5 C 8,9 km/h (2 Bft)
04.12.2020 18:00 6,8 C 81 % 988,6 hPa 0,0 mm 4,0 km/h (1 Bft) W-NW 286 0 min 0,0 mm 0,0 UV-I 0 W/m 3,8 C 13,3 km/h (3 Bft)
04.12.2020 17:00 7,3 C 80 % 987,9 hPa 0,0 mm 3,4 km/h (1 Bft) W-NW 296 0 min 0,0 mm 0,0 UV-I 0 W/m 4,1 C 8,9 km/h (2 Bft)
04.12.2020 16:00 7,7 C 78 % 987,3 hPa 0,0 mm 6,5 km/h (2 Bft) W-SW 257 0 min 0,0 mm 0,0 UV-I 11 W/m 4,1 C 15,5 km/h (3 Bft)
04.12.2020 15:00 8,0 C 74 % 986,4 hPa 0,0 mm 9,9 km/h (2 Bft) O 84 0 min 0,1 mm 0,0 UV-I 59 W/m 3,7 C 26,7 km/h (4 Bft)
04.12.2020 14:00 8,2 C 73 % 986,0 hPa 0,0 mm 12,0 km/h (2 Bft) O 84 20 min 0,1 mm 0,0 UV-I 62 W/m 3,7 C 22,2 km/h (4 Bft)
04.12.2020 13:00 8,2 C 76 % 986,0 hPa 0,0 mm 7,9 km/h (2 Bft) O 84 0 min 0,1 mm 2,2 UV-I 134 W/m 4,2 C 17,8 km/h (3 Bft)
_ Min-Zeit 07:30 11:55 13:00 - 20:45 - - - - - - 00:10 21:35
Minimum _ 2,1 C 71 % 986,0 hPa - 0,0 km/h (0 Bft) - - - - - - 0,8 C 0,0 km/h (0 Bft)
_ Max-Zeit 13:30 07:50 11:40 13:00 14:25 - - 13:15 12:00 13:25 12:00 13:25 13:35
Maximum _ 8,4 C 94 % 998,0 hPa 0,0 mm 14,0 km/h
O (3 Bft)
- - 5 min 0,2 mm 2,3 UV-I 396 W/m 4,3 C 31,1 km/h
O (5 Bft)
Durchschnitt _ 5,0 C 85 % 991,0 hPa #0,0 mm 3,6 km/h (1 Bft) W - #1:55 h #0,254 mm 1,3 UV-I 190 W/m 2,7 C 8,7 km/h (2 Bft)



© 1998 - 2020 www.pulheimwetter.de